• Join FlightAware (Why Join?)
  • Login
  • US Flag 
07:31PM EDT


 

Airport Tracker/Info


-or-


 

Live Flight TrackerFlight Track Log ✈ KLM1227 ✈ 28-Apr-2013 ✈ EHAM / AMS - LFPG / CDG

Flight Track Log - Related Links

Times and Time Zones

All times are in EDT time to prevent confusion due to time zone crossing. See the KLM1227 flight status page for this flight to view local times or setup timezone preferences in your user account.

Time Position Orientation Groundspeed Altitude Reporting Facility
EDT Latitude Longitude Course Direction KTS MPH feet Rate Location/Type
01:27AM 51.7820 4.3867 204° Southwest  Level Estimated
01:28AM 51.7415 4.3580 204° Southwest  Level Estimated
01:29AM 51.7009 4.3294 204° Southwest  Level Estimated
01:30AM 51.6603 4.3008 204° Southwest  Level Estimated
01:31AM 51.6197 4.2723 204° Southwest  Level Estimated
01:32AM 51.5792 4.2439 204° Southwest  Level Estimated
01:33AM 51.5386 4.2155 204° Southwest  Level Estimated
01:34AM 51.4980 4.1872 203° Southwest  Level Estimated
01:35AM 51.4574 4.1589 203° Southwest  Level Estimated
01:36AM 51.4167 4.1306 203° Southwest  Level Estimated
01:37AM 51.3761 4.1024 203° Southwest  Level Estimated
01:38AM 51.3355 4.0743 203° Southwest  Level Estimated
01:39AM 51.2949 4.0462 203° Southwest  Level Estimated
01:40AM 51.2542 4.0181 203° Southwest  Level Estimated
01:41AM 51.2136 3.9901 203° Southwest  Level Estimated
01:42AM 51.1729 3.9622 203° Southwest  Level Estimated
01:43AM 51.1323 3.9343 203° Southwest  Level Estimated
01:44AM 51.0916 3.9064 203° Southwest  Level Estimated
01:45AM 51.0509 3.8786 203° Southwest  Level Estimated
01:46AM 51.0102 3.8509 203° Southwest  Level Estimated
01:47AM 50.9696 3.8231 203° Southwest  Level Estimated
01:48AM 50.9289 3.7955 203° Southwest  Level Estimated
01:49AM 50.8748 3.7589 203° Southwest  Level Estimated
01:50AM 50.8208 3.7223 203° Southwest  Level Estimated
01:51AM 50.7667 3.6858 203° Southwest  Level Estimated
01:52AM 50.7126 3.6494 203° Southwest  Level Estimated
01:53AM 50.6585 3.6131 203° Southwest  Level Estimated
01:54AM 50.6044 3.5769 203° Southwest  Level Estimated
01:55AM 50.5503 3.5407 203° Southwest  Level Estimated
01:56AM 50.4962 3.5047 203° Southwest  Level Estimated
01:57AM 50.4421 3.4687 203° Southwest  Level Estimated
01:58AM 50.3879 3.4328 203° Southwest  Level Estimated
01:59AM 50.3338 3.3970 203° Southwest  Level Estimated
02:00AM 50.2796 3.3613 203° Southwest  Level Estimated
02:01AM 50.2254 3.3256 203° Southwest  Level Estimated
02:02AM 50.1712 3.2901 203° Southwest  Level Estimated
02:03AM 50.1170 3.2546 203° Southwest  Level Estimated
02:04AM 50.0628 3.2192 203° Southwest  Level Estimated
02:05AM 50.0086 3.1838 203° Southwest  Level Estimated
02:06AM 49.9543 3.1486 203° Southwest  Level Estimated
02:07AM 49.9001 3.1134 203° Southwest  Level Estimated
02:08AM 49.8459 3.0783 203° Southwest  Level Estimated
02:09AM 49.7916 3.0433 203° Southwest  Level Estimated
02:10AM 49.7373 3.0084 203° Southwest  Level Estimated
02:11AM 49.6830 2.9735 203° Southwest  Level Estimated
02:12AM 49.6287 2.9387 203° Southwest  Level Estimated
02:13AM 49.5744 2.9040 203° Southwest  Level Estimated
02:14AM 49.5201 2.8694 202° Southwest  Level Estimated
02:15AM 49.4658 2.8349 202° Southwest  Level Estimated
02:16AM 49.4114 2.8004 202° Southwest  Level Estimated
02:17AM 49.3571 2.7660 202° Southwest  Level Estimated
02:18AM 49.3027 2.7317 202° Southwest  Level Estimated
02:19AM 49.2483 2.6974 202° Southwest  Level Estimated
02:20AM 49.1940 2.6633 202° Southwest  Level Estimated
02:21AM 49.1396 2.6292 202° Southwest  Level Estimated
02:22AM 49.0852 2.5952 202° Southwest  Level Estimated
02:23AM 49.0308 2.5612 202° Southwest  Level Estimated
02:24AM 49.0128 2.5500 202° Southwest  Level Estimated
02:25AM 49.0128 2.5500 180° South  Level Estimated
02:26AM 49.0128 2.5500 180° South  Level Estimated
02:27AM 49.0128 2.5500 180° South  Level Estimated
02:28AM 49.0128 2.5500 180° South  Level Estimated
02:29AM 49.0128 2.5500 180° South  Level Estimated
02:30AM 49.0128 2.5500 180° South  Level Estimated
02:31AM 49.0128 2.5500 180° South  Level Estimated